createdAt,value
2018-12-22T01:50:57.845Z,74.90
2018-12-22T02:30:15.197Z,89.29
2018-12-22T04:01:52.465Z,79.96
2018-12-22T04:04:34.541Z,79.04
2018-12-22T04:13:27.636Z,81.10
2018-12-22T04:52:57.565Z,83.72
2018-12-22T04:55:33.085Z,83.52
2018-12-22T04:58:02.486Z,84.15
2018-12-22T05:00:32.218Z,83.27
2018-12-22T05:03:02.299Z,82.52
2018-12-22T05:05:32.090Z,82.89
2018-12-22T05:08:01.510Z,83.12
2018-12-22T05:10:31.242Z,82.86
2018-12-22T05:15:47.014Z,81.18
2018-12-22T05:18:16.429Z,81.24
2018-12-22T05:20:46.202Z,81.47
2018-12-22T05:23:16.611Z,80.95
2018-12-22T05:25:46.430Z,80.91
2018-12-22T05:28:15.874Z,80.65
2018-12-22T05:30:45.694Z,79.55
2018-12-22T05:33:15.118Z,79.41
2018-12-22T05:35:44.906Z,79.25
2018-12-22T05:38:20.911Z,78.94
2018-12-22T05:41:01.043Z,78.77
2018-12-22T05:43:36.307Z,78.76
2018-12-22T05:49:25.414Z,79.56
2018-12-22T05:52:00.958Z,79.30
2018-12-22T05:54:42.565Z,80.12
2018-12-22T05:57:18.369Z,80.16
2018-12-22T06:03:04.408Z,79.47
2018-12-22T06:05:36.403Z,79.51
2018-12-22T06:08:09.507Z,79.43
2018-12-22T06:10:45.773Z,80.86
2018-12-22T06:13:27.210Z,80.46
2018-12-22T06:16:00.325Z,80.57
2018-12-22T06:18:40.336Z,81.33
2018-12-22T06:24:26.136Z,80.66
2018-12-22T06:26:59.037Z,80.61
2018-12-22T06:29:31.064Z,81.03
2018-12-22T06:32:10.499Z,81.08
2018-12-22T06:34:43.833Z,81.60
2018-12-22T06:40:30.650Z,82.59
2018-12-22T06:43:12.819Z,83.77
2018-12-22T06:45:43.377Z,84.20
2018-12-22T06:48:13.158Z,83.73
2018-12-22T06:50:42.865Z,84.13
2018-12-22T06:53:12.571Z,84.13
2018-12-22T06:55:42.297Z,84.02
2018-12-22T06:58:11.636Z,84.00
2018-12-22T07:00:41.050Z,84.63
2018-12-22T07:03:11.004Z,84.80
2018-12-22T07:05:41.720Z,84.85
2018-12-22T07:08:13.208Z,85.75
2018-12-22T07:10:43.249Z,85.43
2018-12-22T07:13:28.810Z,85.01
2018-12-22T07:15:59.317Z,83.89
2018-12-22T07:18:41.226Z,84.36
2018-12-22T07:21:18.205Z,83.96
2018-12-22T07:23:48.406Z,83.48
2018-12-22T07:26:18.267Z,83.66
2018-12-22T07:28:48.785Z,82.43
2018-12-22T07:31:18.164Z,82.23
2018-12-22T07:33:47.661Z,82.23
2018-12-22T07:42:21.415Z,81.39
2018-12-22T07:47:51.196Z,79.66
2018-12-22T07:50:33.010Z,80.09
2018-12-22T07:56:03.292Z,79.79
2018-12-22T08:01:32.536Z,78.94
2018-12-22T08:04:01.968Z,79.29
2018-12-22T08:06:32.515Z,79.28
2018-12-22T08:12:21.832Z,78.20
2018-12-22T08:18:06.113Z,77.88
2018-12-22T08:20:44.435Z,77.69
2018-12-22T08:23:18.121Z,77.84
2018-12-22T08:25:59.696Z,77.65
2018-12-22T08:28:29.448Z,76.77
2018-12-22T08:31:02.730Z,76.73
2018-12-22T08:33:44.358Z,76.23
2018-12-22T08:36:38.160Z,76.03
2018-12-22T08:39:13.462Z,76.49
2018-12-22T08:41:46.339Z,76.31
2018-12-22T08:53:37.259Z,78.17
2018-12-22T08:56:12.766Z,78.40
2018-12-22T08:59:07.006Z,78.43
2018-12-22T09:01:42.483Z,78.17
2018-12-22T09:56:07.235Z,77.40
2018-12-22T10:01:42.784Z,79.02
2018-12-22T10:07:20.282Z,79.68
2018-12-22T10:09:56.198Z,79.77
2018-12-22T10:15:32.824Z,81.25
2018-12-22T10:18:02.901Z,81.62
2018-12-22T10:20:32.862Z,82.53
2018-12-22T10:23:02.618Z,83.13
2018-12-22T10:25:32.431Z,83.46
2018-12-22T10:31:08.846Z,84.89
2018-12-22T10:33:38.707Z,84.92
2018-12-22T10:36:08.472Z,85.27
2018-12-22T10:38:52.137Z,85.64
2018-12-22T10:41:22.710Z,85.13
2018-12-22T10:43:58.351Z,84.88
2018-12-22T10:46:29.916Z,85.24
2018-12-22T10:49:00.020Z,85.02
2018-12-22T10:51:30.131Z,85.31
2018-12-22T10:54:00.279Z,84.29
2018-12-22T10:56:38.780Z,84.53
2018-12-22T10:59:13.777Z,84.08
2018-12-22T11:01:45.042Z,84.63
2018-12-22T11:04:16.561Z,84.47
2018-12-22T11:06:46.678Z,83.99
2018-12-22T11:09:21.040Z,83.78
2018-12-22T11:11:51.505Z,83.66
2018-12-22T11:14:23.535Z,83.96
2018-12-22T11:16:54.306Z,83.33
2018-12-22T11:19:24.421Z,82.95
2018-12-22T11:21:55.154Z,82.67
2018-12-22T11:24:24.979Z,81.84
2018-12-22T11:26:54.805Z,82.73
2018-12-22T11:29:25.097Z,82.76
2018-12-22T11:31:57.770Z,82.37
2018-12-22T11:34:28.585Z,81.92
2018-12-22T11:37:00.717Z,81.78
2018-12-22T11:39:31.229Z,82.07
2018-12-22T11:42:02.525Z,81.58
2018-12-22T11:44:32.447Z,82.23
2018-12-22T11:47:12.330Z,82.46
2018-12-22T11:49:45.169Z,82.54
2018-12-22T11:52:15.733Z,82.84
2018-12-22T11:54:46.241Z,82.72
2018-12-22T11:57:16.752Z,82.73
2018-12-22T11:59:50.667Z,82.80
2018-12-22T12:02:21.884Z,83.42
2018-12-22T12:04:52.652Z,83.42
2018-12-22T12:07:23.950Z,83.08
2018-12-22T12:09:55.362Z,83.62
2018-12-22T12:12:28.255Z,83.07
2018-12-22T12:15:00.297Z,83.40
2018-12-22T12:20:36.861Z,83.04
2018-12-22T12:23:19.525Z,82.69
2018-12-22T12:39:28.373Z,78.70
2018-12-22T12:44:46.264Z,78.07
2018-12-22T12:47:16.887Z,78.36
2018-12-22T12:49:47.711Z,78.02
2018-12-22T12:52:17.541Z,76.74
2018-12-22T12:54:48.720Z,77.12
2018-12-22T12:57:19.227Z,77.64
2018-12-22T12:59:48.987Z,76.86
2018-12-22T13:02:19.860Z,76.14
2018-12-22T13:04:49.325Z,75.92
2018-12-22T13:07:19.138Z,76.30
2018-12-22T13:09:49.458Z,76.33
2018-12-22T13:12:25.141Z,77.01
2018-12-22T13:14:54.850Z,77.31
2018-12-22T13:17:25.352Z,76.62
2018-12-22T13:19:55.045Z,76.26
2018-12-22T13:22:24.910Z,76.02
2018-12-22T13:24:54.268Z,76.21
2018-12-22T13:27:24.144Z,76.99
2018-12-22T13:29:53.513Z,76.83
2018-12-22T13:35:23.509Z,77.13
2018-12-22T13:37:54.263Z,76.32
2018-12-22T13:40:24.829Z,76.82
2018-12-22T13:42:54.199Z,76.22
2018-12-22T13:45:24.500Z,75.77
2018-12-22T13:48:00.008Z,75.96
2018-12-22T13:50:34.519Z,75.84
2018-12-22T13:53:05.258Z,75.48
2018-12-22T13:55:35.272Z,74.74
2018-12-22T13:58:05.864Z,75.35
2018-12-22T14:00:46.394Z,74.83
2018-12-22T14:03:21.690Z,74.52
2018-12-22T14:05:53.888Z,74.00
2018-12-22T14:08:24.525Z,74.07
2018-12-22T14:10:55.034Z,73.91
2018-12-22T14:13:25.233Z,73.88
2018-12-22T14:16:02.407Z,74.14
2018-12-22T14:18:38.141Z,73.97
2018-12-22T14:21:12.641Z,73.48
2018-12-22T14:24:11.057Z,73.09
2018-12-22T14:26:41.094Z,73.86
2018-12-22T14:29:11.161Z,72.85
2018-12-22T14:31:41.352Z,72.84
2018-12-22T14:37:12.712Z,72.74
2018-12-22T14:39:47.757Z,73.03
2018-12-22T14:42:18.465Z,73.17
2018-12-22T14:44:48.212Z,72.93
2018-12-22T14:47:17.960Z,72.93
2018-12-22T14:49:52.793Z,73.25
2018-12-22T14:52:23.580Z,72.91
2018-12-22T14:54:58.905Z,72.43
2018-12-22T14:57:44.701Z,71.96
2018-12-22T15:00:15.780Z,72.01
2018-12-22T15:02:49.604Z,72.40
2018-12-22T15:05:22.116Z,72.28
2018-12-22T15:07:57.528Z,72.61
2018-12-22T15:10:28.311Z,72.93
2018-12-22T15:13:04.172Z,72.63
2018-12-22T15:15:45.758Z,72.58
2018-12-22T15:18:21.415Z,72.88
2018-12-22T15:20:55.600Z,73.02
2018-12-22T15:38:53.724Z,73.95
2018-12-22T15:44:29.571Z,74.33
2018-12-22T15:47:11.941Z,73.94
2018-12-22T15:52:41.205Z,74.72
2018-12-22T15:55:10.939Z,74.46
2018-12-22T15:57:46.539Z,74.62
2018-12-22T16:00:34.811Z,74.52
2018-12-22T16:03:19.217Z,74.12
2018-12-22T16:05:59.614Z,74.51
2018-12-22T16:08:31.105Z,74.55
2018-12-22T16:14:00.385Z,74.55
2018-12-22T16:16:54.270Z,74.93
2018-12-22T16:19:37.723Z,74.86
2018-12-22T16:22:11.618Z,75.33
2018-12-22T16:27:49.167Z,76.21
2018-12-22T16:33:40.207Z,76.26
2018-12-22T16:36:20.188Z,76.92
2018-12-22T16:39:27.345Z,76.59
2018-12-22T18:08:05.556Z,82.17
2018-12-22T18:10:41.396Z,82.10
2018-12-22T18:13:33.678Z,81.35
2018-12-22T18:16:03.060Z,81.95
2018-12-22T18:18:32.800Z,81.73
2018-12-22T18:21:02.511Z,82.12
2018-12-22T18:23:32.809Z,82.48
2018-12-22T18:26:02.559Z,82.71
2018-12-22T18:28:31.907Z,83.09
2018-12-22T18:31:13.003Z,83.82
2018-12-22T18:33:42.669Z,84.04
2018-12-22T18:36:12.457Z,84.54
2018-12-22T18:38:41.871Z,85.17
2018-12-22T18:41:17.429Z,85.96
2018-12-22T18:43:53.881Z,85.93
2018-12-22T18:46:23.730Z,87.57
2018-12-22T18:48:59.001Z,88.01
2018-12-22T18:51:35.054Z,90.21
2018-12-22T18:54:08.495Z,90.60
2018-12-22T18:56:38.204Z,90.77
2018-12-22T18:59:08.057Z,90.11
2018-12-22T19:01:47.281Z,90.36
2018-12-22T19:04:21.273Z,92.36
2018-12-22T19:09:58.603Z,92.95
2018-12-22T19:12:28.581Z,94.61
2018-12-22T19:14:59.367Z,94.21
2018-12-22T19:17:32.587Z,94.98
2018-12-22T19:20:02.388Z,94.93
2018-12-22T19:22:31.746Z,95.17
2018-12-22T19:25:01.580Z,95.70
2018-12-22T19:33:26.383Z,94.07
2018-12-22T19:35:59.889Z,94.16
2018-12-22T19:38:39.286Z,94.92
2018-12-22T19:41:08.714Z,95.97
2018-12-22T19:43:38.418Z,95.92
2018-12-22T19:46:24.710Z,96.76
2018-12-22T19:48:55.055Z,96.83
2018-12-22T19:51:49.524Z,97.29
2018-12-22T19:54:20.428Z,97.59
2018-12-22T19:56:49.948Z,97.85
2018-12-22T20:02:52.502Z,98.46
2018-12-22T20:17:52.977Z,99.78
2018-12-22T20:20:29.570Z,99.77
2018-12-22T20:23:18.639Z,99.47
2018-12-22T20:38:18.807Z,99.50
2018-12-22T20:41:09.389Z,100.00
2018-12-22T20:43:47.997Z,100.00
2018-12-22T20:55:43.837Z,100.00
2018-12-22T21:04:32.691Z,100.00
2018-12-22T21:10:28.504Z,100.00
2018-12-22T21:13:02.054Z,100.00
2018-12-22T21:25:01.123Z,100.00
2018-12-22T21:27:45.396Z,99.97
2018-12-22T21:30:27.245Z,100.00
2018-12-22T21:36:11.634Z,98.71
2018-12-22T21:38:47.018Z,98.48
2018-12-22T21:50:32.292Z,98.51
2018-12-22T21:53:07.795Z,98.49
2018-12-22T21:58:39.051Z,98.22
2018-12-22T22:04:24.585Z,99.14
2018-12-22T22:07:06.734Z,99.79
2018-12-22T22:12:44.269Z,100.00
2018-12-22T22:15:34.462Z,100.00
2018-12-22T22:18:14.826Z,100.00
2018-12-22T22:20:46.660Z,100.00
2018-12-22T22:23:19.344Z,100.00
2018-12-22T22:26:16.318Z,100.00
2018-12-22T22:28:51.307Z,100.00
2018-12-22T22:34:45.545Z,100.00
2018-12-22T22:49:40.261Z,98.87
2018-12-22T22:52:30.943Z,98.07
2018-12-22T22:55:07.533Z,97.84
2018-12-22T22:58:01.177Z,98.43
2018-12-22T23:00:41.504Z,99.65
2018-12-22T23:03:23.545Z,100.00
2018-12-22T23:09:16.917Z,100.00
2018-12-22T23:14:45.891Z,100.00
2018-12-22T23:17:15.745Z,100.00
2018-12-22T23:19:57.264Z,100.00
2018-12-22T23:22:27.064Z,100.00
2018-12-22T23:25:02.271Z,100.00
2018-12-22T23:27:31.985Z,100.00
2018-12-22T23:30:01.828Z,100.00
2018-12-22T23:32:31.171Z,100.00
2018-12-22T23:35:03.030Z,99.82
2018-12-22T23:37:39.240Z,99.88
2018-12-22T23:46:20.544Z,98.49
2018-12-22T23:48:49.947Z,99.36
2018-12-22T23:51:20.034Z,99.76
2018-12-22T23:53:49.683Z,99.35
2018-12-22T23:56:33.432Z,99.20
